Impacts METAR Board
IDs:

KORD - Chicago/O'Hare Intl, IL, US

Updated at: 1800 UTC 02 Oct 2022
Potential Impact None Slight Moderate High
Time 02/06Z 02/07Z 02/08Z 02/09Z 02/10Z 02/11Z 02/12Z 02/13Z 02/14Z 02/15Z 02/16Z 02/17Z 02/18Z
Temp53 53 53 53 57 56 58 59 60 61 62 62 63
Dewpt50 49 50 49 52 53 53 54 53 52 52 52 52
Altim30.24 30.25 30.25 30.26 30.27 30.29 30.30 30.32 30.33 30.36 30.37 30.38 30.38
VIS10 10 10 10 10 10 10 10 10 10 10 10 10
CIG-- -- -- -- -- 13 14 16 17 22 23 18 20
CoverCLRCLRCLRCLRFEWBKNBKNBKNBKNBKNBKNBKNBKN
FltCatVFRVFRVFRVFRVFRMVFRMVFRMVFRMVFRMVFRMVFRMVFRMVFR
WX--------------------------
WDir3303503030604070606070503010
WSpd5 5 6 6 5 5 7 6 8 11 11 12 13
WGst-- -- -- -- -- -- -- -- -- -- -- -- --
Raw hourly METARs
KORD 020551Z 33005KT 10SM CLR 12/10 A3024 RMK AO2 SLP241 T01170100 10161 20117 402000100 50001
KORD 020651Z 35005KT 10SM CLR 12/09 A3025 RMK AO2 SLP243 T01170094
KORD 020751Z 03006KT 10SM CLR 12/10 A3025 RMK AO2 SLP245 T01170100
KORD 020851Z 03006KT 10SM CLR 12/09 A3026 RMK AO2 SLP248 T01170094 53006
KORD 020951Z 06005KT 10SM FEW170 14/11 A3027 RMK AO2 SLP249 T01390111
KORD 021051Z 04005KT 10SM BKN013 13/12 A3029 RMK AO2 SLP256 T01330117
KORD 021151Z 07007KT 10SM BKN014 BKN200 14/12 A3030 RMK AO2 SLP261 T01440117 10144 20111 53013
KORD 021251Z 06006KT 10SM FEW013 BKN016 BKN200 15/12 A3032 RMK AO2 SLP269 CIG 014V019 T01500122
KORD 021351Z 06008KT 10SM FEW014 BKN017 16/12 A3033 RMK AO2 SLP271 CIG 015V020 T01560117
KORD 021451Z 07011KT 10SM FEW017 BKN022 16/11 A3036 RMK AO2 SLP279 T01610111 53010
KORD 021551Z 05011KT 10SM SCT018 BKN023 17/11 A3037 RMK AO2 SLP286 T01670111
KORD 021651Z 03012KT 10SM BKN018 BKN023 17/11 A3038 RMK AO2 SLP288 T01670111
KORD 021751Z 01013KT 10SM BKN020 17/11 A3038 RMK AO2 SLP288 T01720111 10178 20144 50009



Page loaded:  18:34 UTC  |   11:34 AM Pacific  |   12:34 PM Mountain  |   01:34 PM Central  |   02:34 PM Eastern

 

ADVISORIES

FORECASTS

FORECASTS

OBSERVATIONS

USER TOOLS

ABOUT US